createdAt,value
2022-12-13T00:00:23.663Z,0.00
2022-12-13T00:01:23.578Z,0.00
2022-12-13T00:02:23.522Z,0.00
2022-12-13T00:03:23.388Z,0.00
2022-12-13T00:04:23.361Z,0.00
2022-12-13T00:05:23.207Z,0.00
2022-12-13T00:06:23.113Z,0.00
2022-12-13T00:07:23.024Z,0.00
2022-12-13T00:08:22.981Z,0.00
2022-12-13T00:09:22.849Z,0.00
2022-12-13T00:10:22.750Z,0.00
2022-12-13T00:11:22.662Z,0.00
2022-12-13T00:12:22.580Z,0.00
2022-12-13T00:13:22.485Z,0.00
2022-12-13T00:14:22.391Z,0.00
2022-12-13T00:15:22.298Z,0.00
2022-12-13T00:16:22.244Z,0.00
2022-12-13T00:17:22.112Z,0.00
2022-12-13T00:18:22.026Z,0.00
2022-12-13T00:19:21.933Z,0.00
2022-12-13T00:20:21.840Z,0.00
2022-12-13T00:21:21.749Z,0.00
2022-12-13T00:22:21.662Z,0.00
2022-12-13T00:23:21.574Z,0.00
2022-12-13T00:24:21.477Z,0.00
2022-12-13T00:25:21.418Z,0.00
2022-12-13T00:26:21.297Z,0.00
2022-12-13T00:27:21.200Z,0.00
2022-12-13T00:28:21.117Z,0.00
2022-12-13T00:29:21.021Z,0.00
2022-12-13T00:30:20.933Z,0.00
2022-12-13T00:31:53.550Z,0.00
2022-12-13T00:32:20.795Z,0.00
2022-12-13T00:33:20.654Z,0.00
2022-12-13T00:34:20.563Z,0.00
2022-12-13T00:35:20.472Z,0.00
2022-12-13T00:36:20.384Z,0.00
2022-12-13T00:37:20.293Z,0.00
2022-12-13T00:38:20.199Z,0.00
2022-12-13T00:39:20.105Z,0.00
2022-12-13T00:40:20.020Z,0.00
2022-12-13T00:41:19.930Z,0.00
2022-12-13T00:42:19.833Z,0.00
2022-12-13T00:43:19.746Z,0.00
2022-12-13T00:44:19.661Z,0.00
2022-12-13T00:45:19.560Z,0.00
2022-12-13T00:46:19.500Z,0.00
2022-12-13T00:47:19.375Z,0.00
2022-12-13T00:48:19.294Z,0.00
2022-12-13T00:49:19.197Z,0.00
2022-12-13T00:50:19.127Z,0.00
2022-12-13T00:51:19.012Z,0.00
2022-12-13T00:52:18.921Z,0.00
2022-12-13T00:53:18.838Z,0.00
2022-12-13T00:54:18.747Z,0.00
2022-12-13T00:55:18.645Z,0.00
2022-12-13T00:56:18.555Z,0.00
2022-12-13T00:57:18.470Z,0.00
2022-12-13T00:58:18.372Z,0.00
2022-12-13T00:59:18.288Z,0.00
2022-12-13T01:00:18.193Z,0.00
2022-12-13T01:01:18.167Z,0.00
2022-12-13T01:02:18.013Z,0.00
2022-12-13T01:03:17.949Z,0.00
2022-12-13T01:04:17.826Z,0.00
2022-12-13T01:05:38.629Z,0.00
2022-12-13T01:06:17.919Z,0.00
2022-12-13T01:07:17.559Z,0.00
2022-12-13T01:08:17.539Z,0.00
2022-12-13T01:09:17.377Z,0.00
2022-12-13T01:10:17.281Z,0.00
2022-12-13T01:11:17.186Z,0.00
2022-12-13T01:12:17.102Z,0.00
2022-12-13T01:13:17.004Z,0.00
2022-12-13T01:14:16.916Z,0.00
2022-12-13T01:15:17.076Z,0.00
2022-12-13T01:16:16.829Z,0.00
2022-12-13T01:17:16.638Z,0.00
2022-12-13T01:18:16.553Z,0.00
2022-12-13T01:19:16.454Z,0.00
2022-12-13T01:20:16.370Z,0.00
2022-12-13T01:21:16.278Z,0.00
2022-12-13T01:22:16.183Z,0.00
2022-12-13T01:23:16.088Z,0.00
2022-12-13T01:24:16.004Z,0.00
2022-12-13T01:25:16.107Z,0.00
2022-12-13T01:26:15.817Z,0.00
2022-12-13T01:27:15.723Z,0.00
2022-12-13T01:28:15.638Z,0.00
2022-12-13T01:29:15.547Z,0.00
2022-12-13T01:30:15.451Z,0.00
2022-12-13T01:31:15.440Z,0.00
2022-12-13T01:32:15.268Z,0.00
2022-12-13T01:33:15.176Z,0.00
2022-12-13T01:34:15.089Z,0.00
2022-12-13T01:35:15.137Z,0.00
2022-12-13T01:36:14.930Z,0.00
2022-12-13T01:37:14.811Z,0.00
2022-12-13T01:38:15.651Z,0.00
2022-12-13T01:39:15.672Z,0.00
2022-12-13T01:40:16.044Z,0.00
2022-12-13T01:41:17.345Z,0.00
2022-12-13T01:42:14.362Z,0.00
2022-12-13T01:43:14.807Z,0.00
2022-12-13T01:44:14.172Z,0.00
2022-12-13T01:45:14.402Z,0.00
2022-12-13T01:46:14.027Z,0.00
2022-12-13T01:47:13.916Z,0.00
2022-12-13T01:48:13.807Z,0.00
2022-12-13T01:49:19.372Z,0.00
2022-12-13T01:50:13.621Z,0.00
2022-12-13T01:51:13.536Z,0.00
2022-12-13T01:52:13.439Z,0.00
2022-12-13T01:53:13.346Z,0.00
2022-12-13T01:54:13.266Z,0.00
2022-12-13T01:55:13.166Z,0.00
2022-12-13T01:56:13.077Z,0.00
2022-12-13T01:57:12.985Z,0.00
2022-12-13T01:58:12.897Z,0.00
2022-12-13T01:59:12.809Z,0.00
2022-12-13T02:00:12.707Z,0.00
2022-12-13T02:01:12.660Z,0.00
2022-12-13T02:02:12.531Z,0.00
2022-12-13T02:03:21.449Z,0.00
2022-12-13T02:04:12.349Z,0.00
2022-12-13T02:05:12.513Z,0.00
2022-12-13T02:06:12.159Z,0.00
2022-12-13T02:07:12.067Z,0.00
2022-12-13T02:08:12.001Z,0.00
2022-12-13T02:09:11.885Z,0.00
2022-12-13T02:10:11.797Z,0.00
2022-12-13T02:11:11.704Z,0.00
2022-12-13T02:12:11.613Z,0.00
2022-12-13T02:13:11.519Z,0.00
2022-12-13T02:14:11.426Z,0.00
2022-12-13T02:15:11.333Z,0.00
2022-12-13T02:16:11.271Z,0.00
2022-12-13T02:17:11.152Z,0.00
2022-12-13T02:18:11.060Z,0.00
2022-12-13T02:19:10.970Z,0.00
2022-12-13T02:20:10.934Z,0.00
2022-12-13T02:21:10.788Z,0.00
2022-12-13T02:22:10.700Z,0.00
2022-12-13T02:23:10.608Z,0.00
2022-12-13T02:24:10.512Z,0.00
2022-12-13T02:25:10.418Z,0.00
2022-12-13T02:26:10.335Z,0.00
2022-12-13T02:27:10.283Z,0.00
2022-12-13T02:28:30.471Z,0.00
2022-12-13T02:29:10.054Z,0.00
2022-12-13T02:30:09.962Z,0.00
2022-12-13T02:31:09.985Z,0.00
2022-12-13T02:32:09.782Z,0.00
2022-12-13T02:33:09.689Z,0.00
2022-12-13T02:34:09.595Z,0.00
2022-12-13T02:35:09.501Z,0.00
2022-12-13T02:36:09.420Z,0.00
2022-12-13T02:37:17.625Z,0.00
2022-12-13T02:38:09.233Z,0.00
2022-12-13T02:39:09.140Z,0.00
2022-12-13T02:40:09.047Z,0.00
2022-12-13T02:41:08.958Z,0.00
2022-12-13T02:42:08.863Z,0.00
2022-12-13T02:43:08.769Z,0.00
2022-12-13T02:44:22.546Z,0.00
2022-12-13T02:45:08.591Z,0.00
2022-12-13T02:46:08.624Z,0.00
2022-12-13T02:47:12.392Z,0.00
2022-12-13T02:48:08.314Z,0.00
2022-12-13T02:49:08.220Z,0.00
2022-12-13T02:50:08.132Z,0.00
2022-12-13T02:51:08.040Z,0.00
2022-12-13T02:52:07.953Z,0.00
2022-12-13T02:53:07.855Z,0.00
2022-12-13T02:54:07.775Z,0.00
2022-12-13T02:55:07.670Z,0.00
2022-12-13T02:56:07.584Z,0.00
2022-12-13T02:57:07.487Z,0.00
2022-12-13T02:58:07.398Z,0.00
2022-12-13T02:59:07.305Z,0.00
2022-12-13T03:00:07.226Z,0.00
2022-12-13T03:01:07.123Z,0.00
2022-12-13T03:02:09.896Z,0.00
2022-12-13T03:03:07.119Z,0.00
2022-12-13T03:04:06.849Z,0.00
2022-12-13T03:05:06.756Z,0.00
2022-12-13T03:06:06.663Z,0.00
2022-12-13T03:07:06.571Z,0.00
2022-12-13T03:08:06.604Z,0.00
2022-12-13T03:09:06.391Z,0.00
2022-12-13T03:10:06.299Z,0.00
2022-12-13T03:11:06.207Z,0.00
2022-12-13T03:12:06.119Z,0.00
2022-12-13T03:13:06.028Z,0.00
2022-12-13T03:14:05.931Z,0.00
2022-12-13T03:15:05.845Z,0.00
2022-12-13T03:16:05.779Z,0.00
2022-12-13T03:17:05.655Z,0.00
2022-12-13T03:18:05.565Z,0.00
2022-12-13T03:19:05.478Z,0.00
2022-12-13T03:20:12.977Z,0.00
2022-12-13T03:21:05.291Z,0.00
2022-12-13T03:22:05.201Z,0.00
2022-12-13T03:23:05.105Z,0.00
2022-12-13T03:24:05.038Z,0.00
2022-12-13T03:25:04.928Z,0.00
2022-12-13T03:26:04.834Z,0.00
2022-12-13T03:27:04.737Z,0.00
2022-12-13T03:28:04.650Z,0.00
2022-12-13T03:29:04.560Z,0.00
2022-12-13T03:30:04.462Z,0.00
2022-12-13T03:31:04.425Z,0.00
2022-12-13T03:32:04.284Z,0.00
2022-12-13T03:33:04.188Z,0.00
2022-12-13T03:34:04.097Z,0.00
2022-12-13T03:35:04.005Z,0.00
2022-12-13T03:36:03.920Z,0.00
2022-12-13T03:37:03.819Z,0.00
2022-12-13T03:38:03.736Z,0.00
2022-12-13T03:39:03.638Z,0.00
2022-12-13T03:40:03.548Z,0.00
2022-12-13T03:41:03.461Z,0.00
2022-12-13T03:42:03.366Z,0.00
2022-12-13T03:43:03.271Z,0.00
2022-12-13T03:44:03.182Z,0.00
2022-12-13T03:45:03.087Z,0.00
2022-12-13T03:46:03.077Z,0.00
2022-12-13T03:47:02.904Z,0.00
2022-12-13T03:48:02.812Z,0.00
2022-12-13T03:49:02.717Z,0.00
2022-12-13T03:50:25.631Z,0.00
2022-12-13T03:51:02.539Z,0.00
2022-12-13T03:52:02.445Z,0.00
2022-12-13T03:53:02.355Z,0.00
2022-12-13T03:54:02.261Z,0.00
2022-12-13T03:55:02.172Z,0.00
2022-12-13T03:56:02.088Z,0.00
2022-12-13T03:57:01.984Z,0.00
2022-12-13T03:58:07.590Z,0.00
2022-12-13T03:59:01.802Z,0.00
2022-12-13T04:00:01.709Z,0.00
2022-12-13T04:01:01.616Z,0.00
2022-12-13T04:02:01.588Z,0.00
2022-12-13T04:03:01.472Z,0.00
2022-12-13T04:04:01.342Z,0.00
2022-12-13T04:05:01.251Z,0.00
2022-12-13T04:06:01.172Z,0.00
2022-12-13T04:07:01.067Z,0.00
2022-12-13T04:08:01.196Z,0.00
2022-12-13T04:09:00.881Z,0.00
2022-12-13T04:10:00.791Z,0.00
2022-12-13T04:11:00.699Z,0.00
2022-12-13T04:12:00.607Z,0.00
2022-12-13T04:13:00.645Z,0.00
2022-12-13T04:14:00.424Z,0.00
2022-12-13T04:15:00.331Z,0.00
2022-12-13T04:16:00.372Z,0.00
2022-12-13T04:17:00.150Z,0.00
2022-12-13T04:18:00.080Z,0.00
2022-12-13T04:18:59.961Z,0.00
2022-12-13T04:19:59.875Z,0.00
2022-12-13T04:20:59.780Z,0.00
2022-12-13T04:21:59.687Z,0.00
2022-12-13T04:22:59.598Z,0.00
2022-12-13T04:24:00.943Z,0.00
2022-12-13T04:24:59.416Z,0.00
2022-12-13T04:25:59.323Z,0.00
2022-12-13T04:26:59.232Z,0.00
2022-12-13T04:27:59.142Z,0.00
2022-12-13T04:28:59.051Z,0.00
2022-12-13T04:29:58.955Z,0.00
2022-12-13T04:30:58.863Z,0.00
2022-12-13T04:31:58.774Z,0.00
2022-12-13T04:32:58.677Z,0.00
2022-12-13T04:33:58.588Z,0.00
2022-12-13T04:35:00.996Z,0.00
2022-12-13T04:35:58.405Z,0.00
2022-12-13T04:36:58.311Z,0.00
2022-12-13T04:37:58.226Z,0.00
2022-12-13T04:38:58.128Z,0.00
2022-12-13T04:40:00.463Z,0.00
2022-12-13T04:40:57.945Z,0.00
2022-12-13T04:41:57.858Z,0.00
2022-12-13T04:42:57.761Z,0.00
2022-12-13T04:43:57.676Z,0.00
2022-12-13T04:44:57.581Z,0.00
2022-12-13T04:45:57.550Z,0.00
2022-12-13T04:47:00.912Z,0.00
2022-12-13T04:47:57.298Z,0.00
2022-12-13T04:48:57.211Z,0.00
2022-12-13T04:49:57.112Z,0.00
2022-12-13T04:50:57.031Z,0.00
2022-12-13T04:52:00.870Z,0.00
2022-12-13T04:52:56.842Z,0.00
2022-12-13T04:53:56.748Z,0.00
2022-12-13T04:54:56.658Z,0.00
2022-12-13T04:55:56.566Z,0.00
2022-12-13T04:56:56.473Z,0.00
2022-12-13T04:57:56.384Z,0.00
2022-12-13T04:58:56.297Z,0.00
2022-12-13T04:59:56.198Z,0.00
2022-12-13T05:00:56.154Z,0.00
2022-12-13T05:01:56.077Z,0.00
2022-12-13T05:02:56.016Z,0.00
2022-12-13T05:03:55.828Z,0.00
2022-12-13T05:04:55.736Z,0.00
2022-12-13T05:05:55.646Z,0.00
2022-12-13T05:06:55.553Z,0.00
2022-12-13T05:07:55.533Z,0.00
2022-12-13T05:09:01.009Z,0.00
2022-12-13T05:09:55.275Z,0.00
2022-12-13T05:10:55.186Z,0.00
2022-12-13T05:12:01.677Z,0.00
2022-12-13T05:12:55.006Z,0.00
2022-12-13T05:13:54.909Z,0.00
2022-12-13T05:14:54.818Z,0.00
2022-12-13T05:15:55.304Z,0.00
2022-12-13T05:16:54.673Z,0.00
2022-12-13T05:17:54.543Z,0.00
2022-12-13T05:18:54.451Z,0.00
2022-12-13T05:19:54.357Z,0.00
2022-12-13T05:20:54.271Z,0.00
2022-12-13T05:21:54.169Z,0.00
2022-12-13T05:22:54.083Z,0.00
2022-12-13T05:23:53.987Z,0.00
2022-12-13T05:24:53.900Z,0.00
2022-12-13T05:25:53.805Z,0.00
2022-12-13T05:26:53.714Z,0.00
2022-12-13T05:27:57.720Z,0.00
2022-12-13T05:28:53.528Z,0.00
2022-12-13T05:30:03.719Z,0.00
2022-12-13T05:30:53.348Z,0.00
2022-12-13T05:31:53.316Z,0.00
2022-12-13T05:32:53.162Z,0.00
2022-12-13T05:33:53.069Z,0.00
2022-12-13T05:34:52.980Z,0.00
2022-12-13T05:35:56.331Z,0.00
2022-12-13T05:36:52.793Z,0.00
2022-12-13T05:37:54.168Z,0.00
2022-12-13T05:38:52.606Z,0.00
2022-12-13T05:39:52.516Z,0.00
2022-12-13T05:40:52.429Z,0.00
2022-12-13T05:41:52.328Z,0.00
2022-12-13T05:42:52.244Z,0.00
2022-12-13T05:43:52.148Z,0.00
2022-12-13T05:44:52.053Z,0.00
2022-12-13T05:45:51.981Z,0.00
2022-12-13T05:46:51.873Z,0.00
2022-12-13T05:47:51.778Z,0.00
2022-12-13T05:48:51.686Z,0.00
2022-12-13T05:49:51.600Z,0.00
2022-12-13T05:50:51.504Z,0.00
2022-12-13T05:51:51.410Z,0.00
2022-12-13T05:52:51.317Z,0.00
2022-12-13T05:53:53.446Z,0.00
2022-12-13T05:54:51.132Z,0.00
2022-12-13T05:55:51.044Z,0.00
2022-12-13T05:56:50.954Z,0.00
2022-12-13T05:57:51.269Z,0.00
2022-12-13T05:58:53.620Z,0.00
2022-12-13T05:59:50.676Z,0.00
2022-12-13T06:00:50.586Z,0.00
2022-12-13T06:01:50.490Z,0.00
2022-12-13T06:02:50.567Z,0.00
2022-12-13T06:03:50.416Z,0.00
2022-12-13T06:04:50.214Z,0.00
2022-12-13T06:05:50.122Z,0.00
2022-12-13T06:06:51.160Z,0.00
2022-12-13T06:07:55.105Z,0.00
2022-12-13T06:08:49.877Z,0.00
2022-12-13T06:09:49.754Z,0.00
2022-12-13T06:10:49.662Z,0.00
2022-12-13T06:11:49.567Z,0.00
2022-12-13T06:12:49.475Z,0.00
2022-12-13T06:13:49.386Z,0.00
2022-12-13T06:14:49.296Z,0.00
2022-12-13T06:15:49.196Z,0.00
2022-12-13T06:16:49.136Z,0.00
2022-12-13T06:17:49.014Z,0.00
2022-12-13T06:18:50.514Z,0.00
2022-12-13T06:19:48.835Z,0.00
2022-12-13T06:20:48.741Z,0.00
2022-12-13T06:21:48.644Z,0.00
2022-12-13T06:22:48.556Z,0.00
2022-12-13T06:23:48.463Z,0.00
2022-12-13T06:24:48.370Z,0.00
2022-12-13T06:25:51.665Z,0.00
2022-12-13T06:26:48.284Z,0.00
2022-12-13T06:27:48.098Z,0.00
2022-12-13T06:28:48.006Z,0.00
2022-12-13T06:29:47.911Z,0.00
2022-12-13T06:30:47.873Z,0.00
2022-12-13T06:31:47.731Z,0.00
2022-12-13T06:32:47.637Z,0.00
2022-12-13T06:33:47.539Z,0.00
2022-12-13T06:34:47.458Z,4.00
2022-12-13T06:35:47.364Z,0.00
2022-12-13T06:36:47.265Z,4.00
2022-12-13T06:37:47.190Z,0.00
2022-12-13T06:38:47.084Z,4.00
2022-12-13T06:39:46.985Z,0.00
2022-12-13T06:40:46.900Z,4.00
2022-12-13T06:41:46.803Z,4.00
2022-12-13T06:42:46.717Z,4.00
2022-12-13T06:43:46.622Z,8.00
2022-12-13T06:44:46.529Z,8.00
2022-12-13T06:45:46.447Z,8.00
2022-12-13T06:46:46.342Z,8.00
2022-12-13T06:47:46.255Z,12.00
2022-12-13T06:48:46.164Z,12.00
2022-12-13T06:49:46.379Z,16.00
2022-12-13T06:50:45.973Z,12.00
2022-12-13T06:51:45.884Z,16.00
2022-12-13T06:52:45.792Z,20.00
2022-12-13T06:53:45.696Z,20.00
2022-12-13T06:54:45.605Z,24.00
2022-12-13T06:55:45.516Z,24.00
2022-12-13T06:56:45.421Z,28.00
2022-12-13T06:57:45.329Z,28.00
2022-12-13T06:58:45.242Z,32.00
2022-12-13T06:59:45.329Z,36.00
2022-12-13T07:00:48.757Z,40.00
2022-12-13T07:01:44.986Z,44.00
2022-12-13T07:02:44.998Z,44.00
2022-12-13T07:03:44.775Z,48.00
2022-12-13T07:04:44.682Z,56.00
2022-12-13T07:05:44.590Z,56.00
2022-12-13T07:06:44.499Z,60.00
2022-12-13T07:07:44.436Z,64.00
2022-12-13T07:08:44.317Z,72.00
2022-12-13T07:09:44.371Z,76.00
2022-12-13T07:10:44.133Z,80.00
2022-12-13T07:11:49.924Z,88.00
2022-12-13T07:12:43.945Z,92.00
2022-12-13T07:13:43.872Z,96.00
2022-12-13T07:14:43.771Z,104.00
2022-12-13T07:15:43.720Z,108.00
2022-12-13T07:16:43.577Z,116.00
2022-12-13T07:17:43.482Z,120.00
2022-12-13T07:18:43.392Z,124.00
2022-12-13T07:19:43.777Z,132.00
2022-12-13T07:20:43.209Z,140.00
2022-12-13T07:21:43.113Z,148.00
2022-12-13T07:22:47.165Z,156.00
2022-12-13T07:23:42.936Z,160.00
2022-12-13T07:24:42.840Z,168.00
2022-12-13T07:25:42.746Z,176.00
2022-12-13T07:26:42.652Z,184.00
2022-12-13T07:27:42.563Z,192.00
2022-12-13T07:28:42.470Z,200.00
2022-12-13T07:29:42.635Z,204.00
2022-12-13T07:30:42.291Z,216.00
2022-12-13T07:31:42.229Z,232.00
2022-12-13T07:32:42.100Z,244.00
2022-12-13T07:33:42.011Z,260.00
2022-12-13T07:34:41.922Z,268.00
2022-12-13T07:35:41.824Z,280.00
2022-12-13T07:36:41.745Z,296.00
2022-12-13T07:37:41.637Z,308.00
2022-12-13T07:38:41.552Z,328.00
2022-12-13T07:39:41.460Z,344.00
2022-12-13T07:40:41.487Z,360.00
2022-12-13T07:41:41.273Z,380.00
2022-12-13T07:42:41.177Z,396.00
2022-12-13T07:43:41.087Z,416.00
2022-12-13T07:44:40.996Z,436.00
2022-12-13T07:45:40.902Z,460.00
2022-12-13T07:46:40.865Z,484.00
2022-12-13T07:47:40.721Z,512.00
2022-12-13T07:48:40.626Z,536.00
2022-12-13T07:49:40.534Z,560.00
2022-12-13T07:50:40.445Z,584.00
2022-12-13T07:51:40.349Z,608.00
2022-12-13T07:52:40.268Z,628.00
2022-12-13T07:53:40.168Z,656.00
2022-12-13T07:54:40.076Z,680.00
2022-12-13T07:55:40.007Z,708.00
2022-12-13T07:56:39.889Z,732.00
2022-12-13T07:57:39.799Z,760.00
2022-12-13T07:58:39.710Z,784.00
2022-12-13T07:59:39.616Z,804.00
2022-12-13T08:00:39.527Z,832.00
2022-12-13T08:01:39.480Z,868.00
2022-12-13T08:02:39.350Z,904.00
2022-12-13T08:03:39.253Z,924.00
2022-12-13T08:04:39.226Z,952.00
2022-12-13T08:05:39.415Z,980.00
2022-12-13T08:06:38.985Z,988.00
2022-12-13T08:07:38.885Z,1012.00
2022-12-13T08:08:38.837Z,1040.00
2022-12-13T08:09:38.699Z,1048.00
2022-12-13T08:10:38.609Z,1064.00
2022-12-13T08:11:38.527Z,1072.00
2022-12-13T08:12:38.429Z,1084.00
2022-12-13T08:13:38.334Z,1132.00
2022-12-13T08:14:38.247Z,1164.00
2022-12-13T08:15:38.155Z,1188.00
2022-12-13T08:16:38.102Z,1244.00
2022-12-13T08:17:37.970Z,1280.00
2022-12-13T08:18:37.881Z,1304.00
2022-12-13T08:19:37.798Z,1336.00
2022-12-13T08:20:37.697Z,1360.00
2022-12-13T08:21:53.944Z,1392.00
2022-12-13T08:22:37.519Z,1416.00
2022-12-13T08:23:37.424Z,1412.00
2022-12-13T08:24:37.335Z,1432.00
2022-12-13T08:25:37.245Z,1492.00
2022-12-13T08:26:37.155Z,1540.00
2022-12-13T08:27:37.068Z,1508.00
2022-12-13T08:28:36.973Z,1488.00
2022-12-13T08:29:36.893Z,1504.00
2022-12-13T08:30:36.793Z,1588.00
2022-12-13T08:31:36.777Z,1648.00
2022-12-13T08:32:36.617Z,1640.00
2022-12-13T08:33:36.521Z,1660.00
2022-12-13T08:34:36.441Z,1664.00
2022-12-13T08:35:36.347Z,1696.00
2022-12-13T08:36:36.253Z,1780.00
2022-12-13T08:37:36.157Z,1808.00
2022-12-13T08:38:36.069Z,1844.00
2022-12-13T08:39:36.573Z,1872.00
2022-12-13T08:40:35.889Z,1872.00
2022-12-13T08:41:39.037Z,1832.00
2022-12-13T08:42:35.714Z,1924.00
2022-12-13T08:43:35.629Z,1780.00
2022-12-13T08:44:35.530Z,1976.00
2022-12-13T08:45:35.460Z,1960.00
2022-12-13T08:46:35.381Z,2000.00
2022-12-13T08:47:41.341Z,2040.00
2022-12-13T08:48:35.283Z,2068.00
2022-12-13T08:49:35.083Z,2092.00
2022-12-13T08:50:34.989Z,2128.00
2022-12-13T08:51:35.687Z,2148.00
2022-12-13T08:52:39.540Z,2164.00
2022-12-13T08:53:40.581Z,2228.00
2022-12-13T08:54:34.632Z,2260.00
2022-12-13T08:55:34.546Z,2284.00
2022-12-13T08:56:34.462Z,2320.00
2022-12-13T08:57:34.365Z,2336.00
2022-12-13T08:58:34.273Z,2380.00
2022-12-13T08:59:34.190Z,2388.00
2022-12-13T09:00:36.186Z,2420.00
2022-12-13T09:01:34.007Z,2460.00
2022-12-13T09:02:38.065Z,2480.00
2022-12-13T09:03:33.828Z,2508.00
2022-12-13T09:04:33.744Z,2508.00
2022-12-13T09:05:35.108Z,2528.00
2022-12-13T09:06:33.563Z,2536.00
2022-12-13T09:07:33.478Z,2552.00
2022-12-13T09:08:35.041Z,2564.00
2022-12-13T09:09:33.298Z,2600.00
2022-12-13T09:10:38.211Z,2640.00
2022-12-13T09:11:39.726Z,2652.00
2022-12-13T09:12:33.032Z,2676.00
2022-12-13T09:13:33.639Z,2684.00
2022-12-13T09:14:34.287Z,2704.00
2022-12-13T09:15:34.560Z,2728.00
2022-12-13T09:16:36.194Z,2748.00
2022-12-13T09:17:36.329Z,2784.00
2022-12-13T09:18:36.439Z,2824.00
2022-12-13T09:19:37.183Z,2852.00
2022-12-13T09:20:32.395Z,2856.00
2022-12-13T09:21:32.345Z,2896.00
2022-12-13T09:22:33.567Z,2924.00
2022-12-13T09:23:32.060Z,2932.00
2022-12-13T09:24:35.864Z,2948.00
2022-12-13T09:25:37.337Z,2988.00
2022-12-13T09:26:38.262Z,2976.00
2022-12-13T09:27:40.046Z,2996.00
2022-12-13T09:28:31.615Z,3024.00
2022-12-13T09:29:31.525Z,3028.00
2022-12-13T09:30:31.763Z,3048.00
2022-12-13T09:31:31.396Z,3064.00
2022-12-13T09:32:31.265Z,3120.00
2022-12-13T09:33:31.412Z,3152.00
2022-12-13T09:34:31.135Z,3180.00
2022-12-13T09:35:31.002Z,3272.00
2022-12-13T09:36:30.914Z,3220.00
2022-12-13T09:37:30.825Z,3320.00
2022-12-13T09:38:30.733Z,3284.00
2022-12-13T09:39:30.648Z,3352.00
2022-12-13T09:40:30.639Z,3364.00
2022-12-13T09:41:30.488Z,3328.00
2022-12-13T09:42:31.218Z,3308.00
2022-12-13T09:43:32.435Z,3284.00
2022-12-13T09:44:32.503Z,3184.00
2022-12-13T09:45:32.100Z,3232.00
2022-12-13T09:46:34.354Z,3308.00
2022-12-13T09:47:35.008Z,3384.00
2022-12-13T09:48:30.190Z,3348.00
2022-12-13T09:49:35.127Z,3296.00
2022-12-13T09:50:29.678Z,3292.00
2022-12-13T09:51:41.426Z,3348.00
2022-12-13T09:52:33.289Z,3300.00
2022-12-13T09:53:34.027Z,3336.00
2022-12-13T09:54:29.330Z,3348.00
2022-12-13T09:55:29.244Z,3184.00
2022-12-13T09:56:29.162Z,3468.00
2022-12-13T09:57:30.891Z,3228.00
2022-12-13T09:58:28.985Z,3076.00
2022-12-13T09:59:28.896Z,3180.00
2022-12-13T10:00:28.804Z,3132.00
2022-12-13T10:01:28.822Z,3204.00
2022-12-13T10:02:28.731Z,3292.00
2022-12-13T10:03:28.546Z,3180.00
2022-12-13T10:04:28.457Z,3328.00
2022-12-13T10:05:37.326Z,3360.00
2022-12-13T10:06:28.281Z,3268.00
2022-12-13T10:07:28.198Z,3364.00
2022-12-13T10:08:28.118Z,3336.00
2022-12-13T10:09:28.021Z,3340.00
2022-12-13T10:10:27.939Z,3436.00
2022-12-13T10:11:31.677Z,3664.00
2022-12-13T10:12:27.763Z,3668.00
2022-12-13T10:13:27.672Z,3448.00
2022-12-13T10:14:27.587Z,3504.00
2022-12-13T10:15:27.504Z,3056.00
2022-12-13T10:16:27.448Z,3440.00
2022-12-13T10:17:27.331Z,3156.00
2022-12-13T10:18:27.242Z,3276.00
2022-12-13T10:19:28.749Z,3332.00
2022-12-13T10:20:27.067Z,3344.00
2022-12-13T10:21:26.980Z,3416.00
2022-12-13T10:22:26.891Z,3476.00
2022-12-13T10:23:52.927Z,3664.00
2022-12-13T10:24:32.962Z,3612.00
2022-12-13T10:25:26.634Z,3492.00
2022-12-13T10:26:26.614Z,3224.00
2022-12-13T10:27:26.460Z,3032.00
2022-12-13T10:28:26.368Z,3272.00
2022-12-13T10:29:26.281Z,3396.00
2022-12-13T10:30:29.021Z,3432.00
2022-12-13T10:31:26.172Z,3416.00
2022-12-13T10:32:26.020Z,3500.00
2022-12-13T10:33:26.208Z,3488.00
2022-12-13T10:34:25.856Z,3384.00
2022-12-13T10:35:25.762Z,3472.00
2022-12-13T10:36:26.648Z,3564.00
2022-12-13T10:37:25.590Z,3564.00
2022-12-13T10:38:31.560Z,3612.00
2022-12-13T10:39:25.412Z,3596.00
2022-12-13T10:40:32.006Z,3652.00
2022-12-13T10:41:25.243Z,3632.00
2022-12-13T10:42:29.240Z,3532.00
2022-12-13T10:43:25.322Z,2680.00
2022-12-13T10:44:24.981Z,3596.00
2022-12-13T10:45:24.892Z,3556.00
2022-12-13T10:46:25.513Z,3440.00
2022-12-13T10:47:24.722Z,3588.00
2022-12-13T10:48:24.636Z,3500.00
2022-12-13T10:49:24.548Z,3536.00
2022-12-13T10:50:24.464Z,3580.00
2022-12-13T10:51:24.379Z,3456.00
2022-12-13T10:52:30.821Z,3548.00
2022-12-13T10:53:24.452Z,3528.00
2022-12-13T10:54:24.117Z,3332.00
2022-12-13T10:55:24.179Z,3616.00
2022-12-13T10:56:24.125Z,3564.00
2022-12-13T10:57:23.856Z,3444.00
2022-12-13T10:58:23.762Z,3560.00
2022-12-13T10:59:23.682Z,3656.00
2022-12-13T11:00:23.593Z,3616.00
2022-12-13T11:01:23.555Z,3568.00
2022-12-13T11:02:23.450Z,3544.00
2022-12-13T11:03:23.643Z,3664.00
2022-12-13T11:04:27.402Z,3636.00
2022-12-13T11:05:23.562Z,3656.00
2022-12-13T11:06:23.076Z,3456.00
2022-12-13T11:07:22.991Z,3540.00
2022-12-13T11:08:23.482Z,3508.00
2022-12-13T11:09:23.642Z,3472.00
2022-12-13T11:10:27.021Z,3392.00
2022-12-13T11:11:22.643Z,3460.00
2022-12-13T11:12:22.556Z,3412.00
2022-12-13T11:13:22.690Z,3416.00
2022-12-13T11:14:31.921Z,3304.00
2022-12-13T11:15:23.097Z,3244.00
2022-12-13T11:16:22.249Z,3400.00
2022-12-13T11:17:22.126Z,3116.00
2022-12-13T11:18:22.412Z,3216.00
2022-12-13T11:19:21.995Z,3096.00
2022-12-13T11:20:21.862Z,3456.00
2022-12-13T11:21:21.776Z,3452.00
2022-12-13T11:22:21.689Z,3424.00
2022-12-13T11:23:21.604Z,3340.00
2022-12-13T11:24:23.027Z,3264.00
2022-12-13T11:25:21.430Z,3280.00
2022-12-13T11:26:24.580Z,3404.00
2022-12-13T11:27:21.265Z,3360.00
2022-12-13T11:28:26.604Z,3392.00
2022-12-13T11:29:21.087Z,3072.00
2022-12-13T11:30:21.000Z,3392.00
2022-12-13T11:31:20.949Z,3272.00
2022-12-13T11:32:22.419Z,3316.00
2022-12-13T11:33:20.746Z,3212.00
2022-12-13T11:34:20.656Z,3248.00
2022-12-13T11:35:20.570Z,3112.00
2022-12-13T11:36:20.483Z,3124.00
2022-12-13T11:37:20.394Z,3100.00
2022-12-13T11:38:20.306Z,3052.00
2022-12-13T11:39:20.228Z,3056.00
2022-12-13T11:40:20.137Z,3020.00
2022-12-13T11:41:32.415Z,3040.00
2022-12-13T11:42:19.965Z,2956.00
2022-12-13T11:43:19.880Z,2992.00
2022-12-13T11:44:19.797Z,2972.00
2022-12-13T11:45:23.045Z,2932.00
2022-12-13T11:46:19.671Z,2980.00
2022-12-13T11:47:19.536Z,3040.00
2022-12-13T11:48:19.447Z,2996.00
2022-12-13T11:49:19.368Z,2964.00
2022-12-13T11:50:33.473Z,2816.00
2022-12-13T11:51:19.190Z,2752.00
2022-12-13T11:52:19.107Z,2848.00
2022-12-13T11:53:19.090Z,2852.00
2022-12-13T11:54:24.252Z,2708.00
2022-12-13T11:55:18.847Z,2776.00
2022-12-13T11:56:18.761Z,2656.00
2022-12-13T11:57:18.673Z,2696.00
2022-12-13T11:58:32.500Z,2476.00
2022-12-13T11:59:25.869Z,2416.00
2022-12-13T12:00:34.098Z,2324.00
2022-12-13T12:01:18.330Z,2200.00
2022-12-13T12:02:18.378Z,2192.00
2022-12-13T12:03:18.233Z,2192.00
2022-12-13T12:04:18.075Z,2032.00
2022-12-13T12:05:17.985Z,2060.00
2022-12-13T12:06:17.898Z,2248.00
2022-12-13T12:07:32.387Z,2344.00
2022-12-13T12:08:33.562Z,2520.00
2022-12-13T12:09:17.641Z,2408.00
2022-12-13T12:10:17.551Z,2344.00
2022-12-13T12:11:17.466Z,2464.00
2022-12-13T12:12:22.191Z,2548.00
2022-12-13T12:13:17.296Z,2256.00
2022-12-13T12:14:17.206Z,2168.00
2022-12-13T12:15:17.127Z,2568.00
2022-12-13T12:16:17.103Z,2764.00
2022-12-13T12:17:16.954Z,2680.00
2022-12-13T12:18:16.864Z,2592.00
2022-12-13T12:19:16.781Z,2660.00
2022-12-13T12:20:23.378Z,2688.00
2022-12-13T12:21:16.601Z,2592.00
2022-12-13T12:22:16.543Z,2240.00
2022-12-13T12:23:16.435Z,2404.00
2022-12-13T12:24:16.343Z,2500.00
2022-12-13T12:25:16.258Z,2380.00
2022-12-13T12:26:16.170Z,2336.00
2022-12-13T12:27:22.496Z,2084.00
2022-12-13T12:28:15.996Z,2060.00
2022-12-13T12:29:15.918Z,2152.00
2022-12-13T12:30:23.064Z,2192.00
2022-12-13T12:31:15.776Z,2160.00
2022-12-13T12:32:15.658Z,2108.00
2022-12-13T12:33:15.567Z,2152.00
2022-12-13T12:34:15.480Z,2264.00
2022-12-13T12:35:15.403Z,2256.00
2022-12-13T12:36:15.313Z,2332.00
2022-12-13T12:37:15.230Z,2380.00
2022-12-13T12:38:15.136Z,2384.00
2022-12-13T12:39:15.056Z,2352.00
2022-12-13T12:40:14.963Z,2244.00
2022-12-13T12:41:16.559Z,2164.00
2022-12-13T12:42:14.793Z,2192.00
2022-12-13T12:43:16.041Z,1732.00
2022-12-13T12:44:14.617Z,2064.00
2022-12-13T12:45:27.003Z,1996.00